tititudorancea.com
Station Historical Data
Daily Summary for March 26, 2018 Units:  Metric    English   Both
« Previous Day
Next Day »
Daily Weekly Monthly Yearly Custom
  High: Low: Average:
Temperature: -17.8 °C 8.1 °C 11.6 °C
Dew Point: -17.8 °C 3.1 °C 5.8 °C
Humidity: Humidity % 52 % 67 %
Wind Speed: 0 km/h 0 km/h 13.5 km/h
Wind Gust: 0 km/h - -
Wind:- - West
Pressure: 0 hPa 1004.3 hPa -
Precipitation: 0 mm    
Historical Graphs
 
 
Ararat weather Find more about Weather in Ararat, AU


 



 


Tabular Data for March 26, 2018
Time Temperature Dew Point Pressure Wind Wind Speed Wind Gust Humidity Rainfall Rate (Hourly)
-17.8 °C -17.8 °C 0 hPa Calm     Humidity % 0 mm
00:00 9.7 °C 4.1 °C 1004.6 hPa North 9.5 km/h 14.8 km/h 68 % 0.25 mm
00:05 9.7 °C 4.1 °C 1004.6 hPa North 10.8 km/h 14.8 km/h 68 % 0.25 mm
00:10 9.6 °C 3.9 °C 1004.6 hPa North 11.4 km/h 18.5 km/h 68 % 0.25 mm
00:15 9.5 °C 3.9 °C 1004.6 hPa WSW 10 km/h 18.5 km/h 68 % 0.25 mm
00:20 9.5 °C 4.1 °C 1004.6 hPa West 15.3 km/h 20.4 km/h 69 % 0 mm
00:25 9.4 °C 4 °C 1004.6 hPa WSW 12.1 km/h 20.4 km/h 69 % 0 mm
00:30 9.4 °C 4 °C 1004.6 hPa WSW 14.3 km/h 16.7 km/h 69 % 0 mm
00:35 9.3 °C 3.9 °C 1004.6 hPa WSW 16.1 km/h 24.1 km/h 69 % 0 mm
00:40 9.3 °C 4.1 °C 1004.6 hPa North 8.2 km/h 16.7 km/h 70 % 0 mm
00:45 9.3 °C 4.3 °C 1004.6 hPa West 14.3 km/h 16.7 km/h 71 % 0 mm
00:50 9 °C 4.4 °C 1004.6 hPa WSW 14.5 km/h 22.2 km/h 73 % 0 mm
00:55 8.8 °C 4.6 °C 1004.6 hPa West 12.7 km/h 19.3 km/h 75 % 0 mm
01:00 8.7 °C 4.6 °C 1004.6 hPa West 13.5 km/h 18.5 km/h 75 % 0 mm
01:05 8.7 °C 4.5 °C 1004.6 hPa West 12.4 km/h 14.8 km/h 75 % 0 mm
01:10 8.6 °C 4.4 °C 1004.6 hPa SW 15.1 km/h 20.4 km/h 75 % 0 mm
01:15 8.5 °C 4.3 °C 1004.6 hPa West 12.4 km/h 16.7 km/h 75 % 0 mm
01:20 8.5 °C 4.1 °C 1004.6 hPa West 12.9 km/h 18.5 km/h 74 % 0 mm
01:25 8.4 °C 4.1 °C 1004.6 hPa West 14.5 km/h 19.3 km/h 74 % 0 mm
01:30 8.4 °C 4 °C 1004.3 hPa West 12.1 km/h 22.2 km/h 74 % 0 mm
01:35 8.3 °C 3.9 °C 1004.6 hPa West 11.9 km/h 16.7 km/h 74 % 0 mm
01:40 8.3 °C 3.8 °C 1004.6 hPa North 14.2 km/h 18.5 km/h 73 % 0 mm
01:45 8.3 °C 3.5 °C 1004.6 hPa West 9.3 km/h 16.7 km/h 72 % 0 mm
01:50 8.3 °C 3.3 °C 1004.6 hPa North 13.5 km/h 16.7 km/h 71 % 0 mm
01:55 8.4 °C 3.4 °C 1004.6 hPa WSW 12.6 km/h 18.5 km/h 71 % 0 mm
02:00 8.4 °C 3.4 °C 1004.6 hPa West 13.2 km/h 20.4 km/h 71 % 0 mm
02:05 8.4 °C 3.3 °C 1004.6 hPa West 14.8 km/h 20.4 km/h 70 % 0 mm
02:10 8.4 °C 3.3 °C 1004.6 hPa West 9 km/h 14.8 km/h 70 % 0 mm
02:15 8.4 °C 3.2 °C 1004.6 hPa WSW 12.2 km/h 18.5 km/h 70 % 0 mm
02:20 8.4 °C 3.2 °C 1005 hPa WSW 8.4 km/h 13 km/h 70 % 0 mm
02:25 8.3 °C 3.1 °C 1005 hPa West 5.8 km/h 7.4 km/h 70 % 0 mm
02:30 8.2 °C 3.2 °C 1005 hPa West 4.3 km/h 5.6 km/h 71 % 0 mm
02:35 8.1 °C 3.1 °C 1005.3 hPa West 6 km/h 7.4 km/h 71 % 0 mm
02:40 8.1 °C 3.1 °C 1005 hPa West 9.7 km/h 13 km/h 71 % 0 mm
02:45 8.2 °C 3.3 °C 1005.3 hPa West 14 km/h 20.4 km/h 71 % 0 mm
02:50 8.3 °C 3.1 °C 1005.3 hPa North 6.8 km/h 16.7 km/h 70 % 0 mm
02:55 8.3 °C 3.3 °C 1005.3 hPa North 6.4 km/h 9.3 km/h 71 % 0 mm
03:00 8.4 °C 3.4 °C 1005.3 hPa West 11.3 km/h 18.5 km/h 71 % 0 mm
03:05 8.4 °C 3.6 °C 1005.3 hPa North 11.9 km/h 18.5 km/h 72 % 0 mm
03:10 8.6 °C 3.8 °C 1005.3 hPa West 11.9 km/h 18.5 km/h 72 % 0 mm
03:15 8.6 °C 3.8 °C 1005.3 hPa West 9.8 km/h 20.4 km/h 72 % 0 mm
03:20 8.6 °C 3.8 °C 1005.3 hPa West 17.9 km/h 22.2 km/h 72 % 0 mm
03:25 8.6 °C 3.8 °C 1005.3 hPa West 18.5 km/h 18.5 km/h 72 % 0 mm
03:30 8.6 °C 3.8 °C 1005.3 hPa WSW 21.6 km/h 25.9 km/h 72 % 0 mm
03:35 8.6 °C 3.8 °C 1005.3 hPa West 14.8 km/h 18.5 km/h 72 % 0 mm
03:40 8.6 °C 3.8 °C 1005.3 hPa North 20.4 km/h 24.1 km/h 72 % 0 mm
03:45 8.6 °C 3.8 °C 1005.3 hPa West 16.1 km/h 22.2 km/h 72 % 0 mm
03:50 8.6 °C 3.8 °C 1005.3 hPa North 16.7 km/h 24.1 km/h 72 % 0 mm
03:55 8.6 °C 3.8 °C 1005.3 hPa West 19.6 km/h 22.2 km/h 72 % 0 mm
04:00 8.6 °C 3.8 °C 1005.3 hPa West 12.2 km/h 18.5 km/h 72 % 0 mm
04:05 8.7 °C 3.9 °C 1005.3 hPa West 7.2 km/h 14.8 km/h 72 % 0 mm
04:10 8.6 °C 3.8 °C 1005.3 hPa West 13 km/h 16.7 km/h 72 % 0 mm
04:15 8.6 °C 3.8 °C 1005.6 hPa West 15.4 km/h 16.7 km/h 72 % 0 mm
04:20 8.6 °C 3.8 °C 1005.6 hPa North 14.8 km/h 16.7 km/h 72 % 0 mm
04:25 8.7 °C 3.9 °C 1005.6 hPa West 9.2 km/h 16.7 km/h 72 % 0 mm
04:30 8.6 °C 4.1 °C 1005.6 hPa West 8.5 km/h 14.8 km/h 73 % 0 mm
04:35 8.7 °C 4.1 °C 1005.6 hPa West 18.7 km/h 29.6 km/h 73 % 0 mm
04:40 8.8 °C 4 °C 1005.6 hPa West 18.5 km/h 22.2 km/h 72 % 0 mm
04:45 8.9 °C 4.3 °C 1005.6 hPa North 21.6 km/h 27.8 km/h 73 % 0 mm
04:50 8.9 °C 4.3 °C 1005.6 hPa West 16.1 km/h 20.4 km/h 73 % 0 mm
04:56 8.9 °C 4.3 °C 1005.6 hPa North 11.4 km/h 18.5 km/h 73 % 0 mm
05:01 8.9 °C 4.3 °C 1005.6 hPa North 7.7 km/h 18.5 km/h 73 % 0 mm
05:06 8.9 °C 4.3 °C 1006 hPa WSW 15.8 km/h 24.1 km/h 73 % 0 mm
05:11 8.9 °C 4.3 °C 1006 hPa West 14.8 km/h 22.5 km/h 73 % 0 mm
05:16 8.9 °C 4.3 °C 1006 hPa West 12.7 km/h 18.5 km/h 73 % 0 mm
05:21 8.9 °C 4.1 °C 1006.3 hPa WSW 21.9 km/h 29.6 km/h 72 % 0 mm
05:26 9 °C 4 °C 1006.3 hPa West 16.3 km/h 20.4 km/h 71 % 0 mm
05:31 8.9 °C 3.9 °C 1006.3 hPa West 12.2 km/h 18.5 km/h 71 % 0 mm
05:36 9 °C 4 °C 1006.3 hPa West 15.6 km/h 19.3 km/h 71 % 0 mm
05:41 9.1 °C 4.1 °C 1006.3 hPa North 11.9 km/h 22.2 km/h 71 % 0 mm
05:46 9.1 °C 4.1 °C 1006.3 hPa West 15 km/h 18.5 km/h 71 % 0 mm
05:51 9.1 °C 4.3 °C 1006.7 hPa West 17.9 km/h 25.9 km/h 72 % 0 mm
05:56 9.2 °C 4.4 °C 1006.7 hPa WSW 15.9 km/h 19.3 km/h 72 % 0 mm
06:01 9.2 °C 4.6 °C 1006.7 hPa WSW 15.8 km/h 24.1 km/h 73 % 0 mm
06:06 9.1 °C 4.5 °C 1006.7 hPa WSW 9.5 km/h 14.8 km/h 73 % 0 mm
06:11 9 °C 4.6 °C 1006.7 hPa West 14 km/h 18.5 km/h 74 % 0 mm
06:16 9 °C 4.6 °C 1007 hPa WSW 12.6 km/h 20.9 km/h 74 % 0 mm
06:21 9.1 °C 4.7 °C 1007 hPa West 12.9 km/h 18.5 km/h 74 % 0 mm
06:26 9.2 °C 4.8 °C 1007 hPa North 15.8 km/h 24.1 km/h 74 % 0 mm
06:31 9.3 °C 4.9 °C 1007.3 hPa North 17.5 km/h 25.9 km/h 74 % 0 mm
06:36 9.3 °C 4.9 °C 1007.3 hPa West 12.2 km/h 20.4 km/h 74 % 0 mm
06:41 9.3 °C 4.9 °C 1007.3 hPa West 14.6 km/h 20.4 km/h 74 % 0 mm
06:46 9.4 °C 5 °C 1007.3 hPa North 20.3 km/h 27.8 km/h 74 % 0 mm
06:51 9.5 °C 5.1 °C 1007.3 hPa North 14 km/h 18.5 km/h 74 % 0 mm
06:56 9.4 °C 5.1 °C 1007.3 hPa WSW 11.1 km/h 16.1 km/h 74 % 0 mm
07:01 9.4 °C 5 °C 1007.7 hPa West 19.8 km/h 31.5 km/h 74 % 0 mm
07:06 9.4 °C 5.2 °C 1007.7 hPa WSW 22.5 km/h 29.6 km/h 75 % 0 mm
07:11 9.4 °C 5.2 °C 1007.7 hPa WSW 11.9 km/h 22.2 km/h 75 % 0 mm
07:16 9.5 °C 5.1 °C 1008 hPa North 15.1 km/h 20.4 km/h 74 % 0 mm
07:21 9.5 °C 5.3 °C 1008 hPa North 15.9 km/h 20.4 km/h 75 % 0 mm
07:26 9.6 °C 5.3 °C 1008 hPa West 21.4 km/h 27.8 km/h 75 % 0 mm
07:31 9.7 °C 5.4 °C 1008 hPa West 17.4 km/h 24.1 km/h 75 % 0 mm
07:36 9.6 °C 5.4 °C 1008 hPa North 16.6 km/h 24.1 km/h 75 % 0 mm
07:41 9.6 °C 5.3 °C 1008 hPa West 15.6 km/h 20.4 km/h 75 % 0 mm
07:46 9.5 °C 5.5 °C 1008 hPa West 17.5 km/h 24.1 km/h 76 % 0 mm
07:51 9.6 °C 5.6 °C 1008 hPa WSW 17.7 km/h 27.8 km/h 76 % 0 mm
07:56 9.6 °C 5.6 °C 1008.4 hPa SW 17.1 km/h 20.4 km/h 76 % 0 mm
08:01 9.7 °C 5.6 °C 1008.4 hPa West 17.4 km/h 24.1 km/h 76 % 0 mm
08:06 9.7 °C 5.7 °C 1008.4 hPa WSW 19.6 km/h 25.9 km/h 76 % 0 mm
08:11 9.7 °C 5.6 °C 1008.7 hPa WSW 20.1 km/h 27.8 km/h 76 % 0 mm
08:16 9.7 °C 5.7 °C 1008.7 hPa West 18.3 km/h 25.9 km/h 76 % 0 mm
08:21 9.8 °C 5.9 °C 1008.7 hPa WSW 12.9 km/h 18.5 km/h 77 % 0 mm
08:26 9.9 °C 6.1 °C 1008.7 hPa North 19.6 km/h 30.6 km/h 77 % 0 mm
08:31 10.1 °C 6.1 °C 1008.7 hPa WSW 14 km/h 20.4 km/h 76 % 0 mm
08:36 10.2 °C 6 °C 1009 hPa North 13.4 km/h 20.4 km/h 75 % 0 mm
08:41 10.3 °C 6.1 °C 1009 hPa SW 20.4 km/h 27.8 km/h 75 % 0 mm
08:46 10.4 °C 6.2 °C 1009 hPa WSW 13.4 km/h 29.6 km/h 75 % 0 mm
08:51 10.6 °C 6.3 °C 1009.4 hPa West 15.6 km/h 20.9 km/h 75 % 0 mm
08:56 10.7 °C 6.4 °C 1009.4 hPa North 16.4 km/h 20.4 km/h 75 % 0 mm
09:01 10.7 °C 6.4 °C 1009.4 hPa North 19.6 km/h 31.5 km/h 75 % 0 mm
09:06 10.8 °C 6.6 °C 1009.4 hPa West 18.3 km/h 24.1 km/h 75 % 0 mm
09:11 11 °C 6.7 °C 1009.7 hPa West 12.2 km/h 18.5 km/h 75 % 0 mm
09:16 11.2 °C 6.8 °C 1009.7 hPa WSW 10.1 km/h 14.5 km/h 74 % 0 mm
09:21 11.3 °C 6.6 °C 1009.7 hPa West 19 km/h 27.8 km/h 73 % 0 mm
09:26 11.4 °C 6.6 °C 1009.7 hPa West 18.2 km/h 25.9 km/h 72 % 0 mm
09:31 11.8 °C 6.9 °C 1009.7 hPa WSW 18.5 km/h 31.5 km/h 72 % 0 mm
09:36 11.8 °C 6.7 °C 1009.7 hPa WSW 14 km/h 20.4 km/h 71 % 0 mm
09:41 11.8 °C 6.7 °C 1010 hPa SSW 22.2 km/h 33.3 km/h 71 % 0 mm
09:46 11.7 °C 6.6 °C 1009.7 hPa WSW 21.9 km/h 33.3 km/h 71 % 0 mm
09:51 11.7 °C 6.8 °C 1009.7 hPa SW 20.9 km/h 29.6 km/h 72 % 0 mm
09:56 11.9 °C 7 °C 1010 hPa SW 18.3 km/h 27.8 km/h 72 % 0 mm
10:01 12.2 °C 7.3 °C 1010 hPa SW 18.5 km/h 27.4 km/h 72 % 0 mm
10:06 12.3 °C 7.4 °C 1010 hPa WSW 13 km/h 20.4 km/h 72 % 0 mm
10:11 12.4 °C 7.1 °C 1010 hPa WSW 15 km/h 25.7 km/h 70 % 0 mm
10:16 12.3 °C 7 °C 1010 hPa SW 23 km/h 31.5 km/h 70 % 0 mm
10:21 12.5 °C 7.4 °C 1010.4 hPa West 23.8 km/h 31.5 km/h 71 % 0 mm
10:26 12.5 °C 7.4 °C 1010.4 hPa WSW 28.6 km/h 35.4 km/h 71 % 0 mm
10:31 12.7 °C 7.3 °C 1010.4 hPa SW 16.3 km/h 24.1 km/h 70 % 0 mm
10:36 12.8 °C 7 °C 1010.4 hPa WSW 14.8 km/h 22.2 km/h 68 % 0 mm
10:41 13.1 °C 7.1 °C 1010.4 hPa SSW 20 km/h 32.2 km/h 67 % 0 mm
10:46 13.1 °C 7.1 °C 1010.4 hPa North 26.7 km/h 37 km/h 67 % 0 mm
10:51 13.4 °C 6.9 °C 1010.4 hPa SW 32.2 km/h 42.6 km/h 65 % 0 mm
10:56 13.4 °C 6.7 °C 1010.7 hPa WSW 29.6 km/h 43.5 km/h 64 % 0 mm
11:01 13.4 °C 6.7 °C 1010.4 hPa SW 25.3 km/h 35.4 km/h 64 % 0 mm
11:06 13.6 °C 6.9 °C 1010.4 hPa SW 22.9 km/h 31.5 km/h 64 % 0 mm
11:11 13.6 °C 6.7 °C 1010.7 hPa SW 27.2 km/h 37 km/h 63 % 0 mm
11:16 13.8 °C 6.8 °C 1010.4 hPa North 17.5 km/h 33.3 km/h 63 % 0 mm
11:21 13.6 °C 6.2 °C 1010.4 hPa WSW 22.2 km/h 35.2 km/h 61 % 0 mm
11:26 13.7 °C 6.8 °C 1010.7 hPa SW 21.4 km/h 29.6 km/h 63 % 0 mm
11:31 13.7 °C 6.7 °C 1010.7 hPa North 20.1 km/h 25.9 km/h 63 % 0 mm
11:36 13.4 °C 6.9 °C 1010.7 hPa North 21.2 km/h 31.5 km/h 65 % 0 mm
11:41 13.3 °C 7.1 °C 1010.7 hPa North 20.3 km/h 31.5 km/h 66 % 0 mm
11:46 13.4 °C 7.2 °C 1011.1 hPa WSW 29.6 km/h 38.6 km/h 66 % 0 mm
11:51 12.9 °C 8 °C 1011.1 hPa WSW 16.1 km/h 31.5 km/h 72 % 0 mm
11:56 12.6 °C 7.8 °C 1011.1 hPa North 18.7 km/h 31.5 km/h 73 % 0 mm
12:01 12.8 °C 7.5 °C 1011.1 hPa WSW 20.8 km/h 31.5 km/h 70 % 0 mm
12:06 13.1 °C 7.1 °C 1011.1 hPa West 21.9 km/h 31.5 km/h 67 % 0 mm
12:11 13.1 °C 6.9 °C 1011.1 hPa WSW 13 km/h 25.9 km/h 66 % 0 mm
12:16 13.2 °C 6.9 °C 1011.1 hPa SW 21.1 km/h 24.1 km/h 66 % 0 mm
12:21 13.2 °C 7 °C 1011.4 hPa North 18.7 km/h 24.1 km/h 66 % 0 mm
12:26 13.4 °C 7.2 °C 1011.1 hPa West 15.6 km/h 22.2 km/h 66 % 0 mm
12:31 13.8 °C 7.6 °C 1011.1 hPa WSW 13.5 km/h 18.5 km/h 66 % 0 mm
12:36 13.8 °C 7.1 °C 1011.1 hPa WSW 13.2 km/h 22.2 km/h 64 % 0 mm
12:41 13.8 °C 6.9 °C 1011.1 hPa SSW 20 km/h 24.1 km/h 63 % 0 mm
12:46 14.1 °C 6.7 °C 1010.7 hPa North 14.3 km/h 20.4 km/h 61 % 0 mm
12:51 14.3 °C 6.8 °C 1011.1 hPa WSW 19.3 km/h 20.4 km/h 61 % 0 mm
12:56 14.3 °C 6.6 °C 1010.7 hPa WSW 10 km/h 18.5 km/h 60 % 0 mm
13:01 14.6 °C 6.6 °C 1010.7 hPa SW 10.9 km/h 18.5 km/h 59 % 0 mm
13:06 14.8 °C 6.6 °C 1011.1 hPa WSW 16.4 km/h 22.5 km/h 58 % 0 mm
13:11 14.6 °C 6.1 °C 1011.1 hPa SW 13.7 km/h 24.1 km/h 57 % 0 mm
13:16 15 °C 6 °C 1011.1 hPa WSW 21.7 km/h 31.5 km/h 55 % 0 mm
13:21 14.8 °C 6.1 °C 1011.1 hPa West 18.3 km/h 33.3 km/h 56 % 0 mm
13:26 14.7 °C 6 °C 1011.1 hPa North 20.6 km/h 27.8 km/h 56 % 0 mm
13:31 14.8 °C 6.9 °C 1011.1 hPa WSW 15.8 km/h 25.7 km/h 59 % 0 mm
13:36 14.6 °C 6.4 °C 1011.1 hPa SSW 15.4 km/h 25.9 km/h 58 % 0 mm
13:41 14.5 °C 6.3 °C 1011.1 hPa WSW 18.8 km/h 31.5 km/h 58 % 0 mm
13:46 14.4 °C 6.5 °C 1011.4 hPa SW 16.9 km/h 25.9 km/h 59 % 0 mm
13:51 14.4 °C 6.8 °C 1011.4 hPa West 23.8 km/h 29.6 km/h 60 % 0 mm
13:56 14.4 °C 6.7 °C 1011.4 hPa WSW 18.5 km/h 33.3 km/h 60 % 0 mm
14:01 14.2 °C 6.6 °C 1011.4 hPa West 19.5 km/h 20.4 km/h 60 % 0 mm
14:06 14.4 °C 6.9 °C 1011.4 hPa WNW 16.1 km/h 18.5 km/h 61 % 0 mm
14:11 14.5 °C 6.8 °C 1011.4 hPa WSW 21.1 km/h 25.9 km/h 60 % 0 mm
14:16 14.7 °C 7 °C 1011.4 hPa WSW 17.7 km/h 18.5 km/h 60 % 0 mm
14:21 14.7 °C 7.2 °C 1011.4 hPa North 17.4 km/h 24.1 km/h 61 % 0 mm
14:26 14.5 °C 7.1 °C 1011.4 hPa West 15.8 km/h 29.6 km/h 61 % 0 mm
14:31 14.7 °C 7.3 °C 1011.4 hPa WSW 13.5 km/h 18.5 km/h 61 % 0 mm
14:36 15.2 °C 6.8 °C 1011.4 hPa West 18.7 km/h 18.7 km/h 57 % 0 mm
14:41 15.2 °C 6.8 °C 1011.4 hPa West 15.1 km/h 15.1 km/h 57 % 0 mm
14:46 14.9 °C 6.4 °C 1011.4 hPa North 13.2 km/h 22.2 km/h 57 % 0 mm
14:52 14.9 °C 6.7 °C 1011.4 hPa WSW 8.7 km/h 18.5 km/h 58 % 0 mm
14:57 14.8 °C 6.3 °C 1011.4 hPa WSW 13 km/h 20.4 km/h 57 % 0 mm
15:02 14.8 °C 6.7 °C 1011.4 hPa WSW 15.1 km/h 24.1 km/h 58 % 0 mm
15:07 14.9 °C 6.7 °C 1011.4 hPa West 15 km/h 25.9 km/h 58 % 0 mm
15:12 14.9 °C 6.7 °C 1011.7 hPa West 14.3 km/h 24.1 km/h 58 % 0 mm
15:17 15.3 °C 7.1 °C 1011.7 hPa SW 15 km/h 22.2 km/h 58 % 0 mm
15:22 15.1 °C 6.8 °C 1011.7 hPa SW 14.3 km/h 22.2 km/h 58 % 0 mm
15:27 14.9 °C 7 °C 1011.4 hPa SW 13.5 km/h 18.5 km/h 59 % 0 mm
15:32 15.2 °C 6.9 °C 1011.7 hPa WSW 20.1 km/h 25.9 km/h 58 % 0 mm
15:37 14.8 °C 7.4 °C 1011.7 hPa WSW 15.9 km/h 35.2 km/h 61 % 0 mm
15:42 14.6 °C 6.7 °C 1011.7 hPa WSW 13.5 km/h 18.5 km/h 59 % 0 mm
15:47 14.7 °C 6.5 °C 1011.7 hPa WSW 14.5 km/h 22.2 km/h 58 % 0 mm
15:52 14.8 °C 6.1 °C 1011.7 hPa WSW 15.3 km/h 24.1 km/h 56 % 0 mm
15:57 15.2 °C 6.5 °C 1011.7 hPa West 11.1 km/h 18.5 km/h 56 % 0 mm
16:02 15.4 °C 6.1 °C 1011.7 hPa West 19.8 km/h 29 km/h 54 % 0 mm
16:07 15.2 °C 5.9 °C 1011.4 hPa WSW 15.1 km/h 22.2 km/h 54 % 0 mm
16:12 15.3 °C 6.3 °C 1011.7 hPa WSW 9.2 km/h 13 km/h 55 % 0 mm
16:17 15.6 °C 6.6 °C 1011.7 hPa WSW 10.9 km/h 20.9 km/h 55 % 0 mm
16:22 15.6 °C 6.6 °C 1011.7 hPa WSW 12.2 km/h 18.5 km/h 55 % 0 mm
16:27 15.6 °C 6.8 °C 1011.7 hPa WSW 15.1 km/h 22.2 km/h 56 % 0 mm
16:32 15.6 °C 6.8 °C 1011.7 hPa SW 7.7 km/h 13 km/h 56 % 0 mm
16:37 15.7 °C 6.4 °C 1011.7 hPa West 9.5 km/h 14.8 km/h 54 % 0 mm
16:42 15.8 °C 6 °C 1011.7 hPa SW 19.3 km/h 27.8 km/h 52 % 0 mm
16:47 15.8 °C 6.2 °C 1011.7 hPa WSW 7.1 km/h 13 km/h 53 % 0 mm
16:52 15.8 °C 6.2 °C 1011.7 hPa North 15.6 km/h 20.4 km/h 53 % 0 mm
16:57 15.8 °C 6.2 °C 1011.7 hPa SW 9.8 km/h 16.7 km/h 53 % 0 mm
17:02 15.8 °C 6.6 °C 1011.7 hPa West 10 km/h 16.7 km/h 54 % 0 mm
17:07 15.6 °C 6 °C 1011.7 hPa WSW 19.3 km/h 24.1 km/h 53 % 0 mm
17:12 15.4 °C 6.4 °C 1011.7 hPa North 7.9 km/h 9.3 km/h 55 % 0 mm
17:17 15.4 °C 6.4 °C 1011.7 hPa WSW 15.9 km/h 18.5 km/h 55 % 0 mm
17:22 15.6 °C 6.8 °C 1012.1 hPa SSW 11.1 km/h 18.5 km/h 56 % 0 mm
17:27 15.3 °C 6.8 °C 1012.1 hPa SW 8.5 km/h 14.8 km/h 57 % 0 mm
17:32 15.3 °C 7.1 °C 1012.1 hPa SSW 13.2 km/h 18.5 km/h 58 % 0 mm
17:37 15.1 °C 6.9 °C 1012.1 hPa SW 11.6 km/h 16.7 km/h 58 % 0 mm
17:42 14.9 °C 7 °C 1012.1 hPa WSW 10.6 km/h 18.5 km/h 59 % 0 mm
17:47 14.9 °C 7 °C 1012.1 hPa SW 13.4 km/h 25.9 km/h 59 % 0 mm
17:52 15.1 °C 7.1 °C 1012.1 hPa North 10.5 km/h 18.5 km/h 59 % 0 mm
17:57 14.9 °C 6.9 °C 1012.1 hPa WSW 13.2 km/h 18.5 km/h 59 % 0 mm
18:02 14.9 °C 7.2 °C 1012.1 hPa WSW 10.6 km/h 14.8 km/h 60 % 0 mm
18:07 15.1 °C 7.1 °C 1012.4 hPa SSW 12.2 km/h 18.5 km/h 59 % 0 mm
18:12 15 °C 6.8 °C 1012.4 hPa SW 11.3 km/h 13 km/h 58 % 0 mm
18:17 15.1 °C 6.4 °C 1012.4 hPa WSW 19.6 km/h 24.1 km/h 56 % 0 mm
18:22 15.1 °C 6.6 °C 1012.4 hPa SW 10.9 km/h 18.5 km/h 57 % 0 mm
18:27 14.9 °C 6.4 °C 1012.4 hPa North 14.2 km/h 27.8 km/h 57 % 0 mm
18:32 14.7 °C 6.6 °C 1012.8 hPa SW 14 km/h 20.4 km/h 58 % 0 mm
18:37 14.7 °C 6.7 °C 1012.8 hPa SW 10.3 km/h 13 km/h 59 % 0 mm
18:42 14.7 °C 7 °C 1012.8 hPa SW 11.7 km/h 14.8 km/h 60 % 0 mm
18:47 14.6 °C 7.2 °C 1012.8 hPa WSW 11.4 km/h 14.8 km/h 61 % 0 mm
18:52 14.7 °C 7.3 °C 1012.8 hPa SW 8.4 km/h 14.8 km/h 61 % 0 mm
18:57 14.6 °C 7.2 °C 1012.8 hPa SW 8.7 km/h 13 km/h 61 % 0 mm
19:02 14.5 °C 7.1 °C 1012.8 hPa WSW 13.7 km/h 18.5 km/h 61 % 0 mm
19:07 14.2 °C 6.8 °C 1012.8 hPa WSW 14.6 km/h 18.5 km/h 61 % 0 mm
19:12 14 °C 6.8 °C 1012.8 hPa SW 14.2 km/h 20.4 km/h 62 % 0 mm
19:17 13.9 °C 6.7 °C 1012.8 hPa SSW 10.5 km/h 18.5 km/h 62 % 0 mm
19:22 13.8 °C 6.8 °C 1012.8 hPa SW 16.7 km/h 20.4 km/h 63 % 0 mm
19:27 13.7 °C 7 °C 1013.1 hPa SW 9 km/h 14.8 km/h 64 % 0 mm
19:32 13.6 °C 6.9 °C 1013.1 hPa SW 8.4 km/h 12.9 km/h 64 % 0 mm
19:37 13.5 °C 6.8 °C 1013.1 hPa SW 8.7 km/h 16.7 km/h 64 % 0 mm
19:38 13.5 °C 6.8 °C 1013.1 hPa SW 10.3 km/h 14.8 km/h 64 % 0 mm
19:43 13.4 °C 6.7 °C 1013.1 hPa SW 6.9 km/h 11.1 km/h 64 % 0 mm
19:48 13.2 °C 6.8 °C 1013.1 hPa SW 6.8 km/h 9.7 km/h 65 % 0 mm
19:53 13.1 °C 6.7 °C 1013.1 hPa SSW 7.1 km/h 9.3 km/h 65 % 0 mm
19:58 13.1 °C 6.8 °C 1013.4 hPa SW 11.3 km/h 16.7 km/h 66 % 0 mm
20:03 13 °C 6.8 °C 1013.4 hPa SW 11.6 km/h 14.8 km/h 66 % 0 mm
20:08 12.9 °C 6.9 °C 1013.8 hPa North 8 km/h 9.3 km/h 67 % 0 mm
20:13 12.8 °C 6.8 °C 1013.8 hPa SW 7.1 km/h 11.3 km/h 67 % 0 mm
20:18 12.7 °C 6.9 °C 1013.8 hPa SW 6.3 km/h 9.3 km/h 68 % 0 mm
20:23 12.6 °C 7 °C 1014.1 hPa SW 5.5 km/h 9.3 km/h 69 % 0 mm
20:28 12.4 °C 6.8 °C 1014.1 hPa SW 7.2 km/h 9.3 km/h 69 % 0 mm
20:33 12.3 °C 6.9 °C 1014.1 hPa SW 5.6 km/h 7.4 km/h 70 % 0 mm
20:38 12.2 °C 6.8 °C 1014.1 hPa SW 3.7 km/h 5.6 km/h 70 % 0 mm
20:43 12.1 °C 6.9 °C 1014.1 hPa SW 5.5 km/h 7.4 km/h 71 % 0 mm
20:48 12 °C 6.9 °C 1014.4 hPa SW 3.7 km/h 5.6 km/h 71 % 0 mm
20:53 11.9 °C 6.8 °C 1014.4 hPa SW 4.2 km/h 5.6 km/h 71 % 0 mm
20:58 11.8 °C 6.9 °C 1014.4 hPa SW 4.5 km/h 5.6 km/h 72 % 0 mm
21:03 11.8 °C 6.9 °C 1014.4 hPa SW 5 km/h 5.6 km/h 72 % 0 mm
21:08 11.8 °C 6.9 °C 1014.4 hPa North 6.9 km/h 11.1 km/h 72 % 0 mm
21:13 11.9 °C 7 °C 1014.4 hPa SW 6.1 km/h 13 km/h 72 % 0 mm
21:18 11.9 °C 6.8 °C 1014.8 hPa North 4.8 km/h 6.4 km/h 71 % 0 mm
21:23 11.8 °C 6.7 °C 1014.8 hPa North 5.3 km/h 5.6 km/h 71 % 0 mm
21:28 11.7 °C 6.6 °C 1014.8 hPa North 6 km/h 9.3 km/h 71 % 0 mm
21:33 11.7 °C 6.8 °C 1014.8 hPa North 8 km/h 11.1 km/h 72 % 0 mm
21:38 11.7 °C 6.6 °C 1014.8 hPa North 6 km/h 7.4 km/h 71 % 0 mm
21:43 11.6 °C 6.5 °C 1015.1 hPa North 5.6 km/h 11.1 km/h 71 % 0 mm
21:48 11.4 °C 6.4 °C 1015.1 hPa SW 10.1 km/h 13 km/h 71 % 0 mm
21:53 11.4 °C 6.4 °C 1015.1 hPa SW 5.6 km/h 11.1 km/h 71 % 0 mm
21:58 11.3 °C 6.4 °C 1015.1 hPa SW 9.2 km/h 13 km/h 72 % 0 mm
22:03 11.2 °C 6.3 °C 1015.1 hPa SW 8.7 km/h 13 km/h 72 % 0 mm
22:08 11.2 °C 6.3 °C 1015.1 hPa North 9.8 km/h 13 km/h 72 % 0 mm
22:13 11.1 °C 6.3 °C 1015.5 hPa SW 10.9 km/h 14.8 km/h 72 % 0 mm
22:18 11.1 °C 6.2 °C 1015.1 hPa North 10 km/h 13 km/h 72 % 0 mm
22:23 11 °C 6.2 °C 1015.1 hPa North 7.9 km/h 11.1 km/h 72 % 0 mm
22:28 10.9 °C 6.3 °C 1015.5 hPa SSW 6.1 km/h 9.3 km/h 73 % 0 mm
22:33 11 °C 6.3 °C 1015.5 hPa SW 10 km/h 14.8 km/h 73 % 0 mm
22:38 11.1 °C 6.4 °C 1015.5 hPa SW 9.2 km/h 16.7 km/h 73 % 0 mm
22:43 11.1 °C 6.4 °C 1015.5 hPa North 11.4 km/h 18.5 km/h 73 % 0 mm
22:48 11.1 °C 6.4 °C 1015.5 hPa North 6.6 km/h 13 km/h 73 % 0 mm
22:53 11 °C 6.6 °C 1015.5 hPa SW 5.3 km/h 6.4 km/h 74 % 0 mm
22:58 10.9 °C 6.4 °C 1015.5 hPa North 6.8 km/h 8 km/h 74 % 0 mm
23:03 10.8 °C 6.3 °C 1015.5 hPa North 5.8 km/h 8 km/h 74 % 0 mm
23:08 10.7 °C 6.4 °C 1015.5 hPa SW 4.5 km/h 7.4 km/h 75 % 0 mm
23:13 10.6 °C 6.3 °C 1015.8 hPa North 5 km/h 5.6 km/h 75 % 0 mm
23:18 10.5 °C 6.4 °C 1015.8 hPa SW 3.2 km/h 6.4 km/h 76 % 0 mm
23:23 10.4 °C 6.3 °C 1015.5 hPa SW 1.4 km/h 3.7 km/h 76 % 0 mm
23:28 10.4 °C 6.3 °C 1015.5 hPa North 2.7 km/h 5.6 km/h 76 % 0 mm
23:33 10.3 °C 6.2 °C 1015.5 hPa Calm   1.9 km/h 76 % 0 mm
23:38 10.2 °C 6.3 °C 1015.5 hPa Calm     77 % 0 mm
23:43 10.1 °C 6.2 °C 1015.5 hPa SW 1.4 km/h 3.7 km/h 77 % 0 mm
23:48 9.9 °C 6.1 °C 1015.5 hPa SW 2.4 km/h 3.7 km/h 77 % 0 mm
23:53 9.7 °C 6 °C 1015.5 hPa North 2.3 km/h 3.7 km/h 78 % 0 mm
23:56 9.6 °C 6.1 °C 1015.5 hPa SW 3.7 km/h 5.6 km/h 79 % 0 mm
Ararat Weather
Compliments of Weather Underground - 2.5 mb
Click here to send mail.


ABOUT

Live weather data from Ararat, Victoria, Australia, 3377
Data uploaded from Cumulus every 5 minutes to Weather Underground.
This site then downloads the raw data for formatting and display.
Metric and imperial data can be displayed. Graphs and historical data available.
Includes Sun and Moon times and rain image live from BOM.

Check out Ararat Weather on Facebook, Twitter and Google +

Help support ongoing costs by checking out the ads





Follow @AraratWeather